sensor_id;sensor_type;location;lat;lon;timestamp;pressure;altitude;pressure_sealevel;temperature;humidity
74542;BME280;63015;45.378;20.360;2023-04-12T00:01:58;100188.22;;;10.64;64.96
74542;BME280;63015;45.378;20.360;2023-04-12T00:03:58;100194.28;;;10.68;64.76
74542;BME280;63015;45.378;20.360;2023-04-12T00:06:03;100186.50;;;10.62;65.01
74542;BME280;63015;45.378;20.360;2023-04-12T00:08:06;100185.59;;;10.66;64.65
74542;BME280;63015;45.378;20.360;2023-04-12T00:10:10;100176.09;;;10.56;64.93
74542;BME280;63015;45.378;20.360;2023-04-12T00:12:10;100178.72;;;10.51;65.34
74542;BME280;63015;45.378;20.360;2023-04-12T00:14:11;100177.00;;;10.33;65.85
74542;BME280;63015;45.378;20.360;2023-04-12T00:16:11;100175.31;;;10.32;65.82
74542;BME280;63015;45.378;20.360;2023-04-12T00:18:14;100180.56;;;10.18;66.54
74542;BME280;63015;45.378;20.360;2023-04-12T00:20:15;100165.81;;;10.17;66.37
74542;BME280;63015;45.378;20.360;2023-04-12T00:22:15;100167.53;;;10.15;66.09
74542;BME280;63015;45.378;20.360;2023-04-12T00:24:16;100169.28;;;10.16;66.12
74542;BME280;63015;45.378;20.360;2023-04-12T00:26:16;100164.13;;;10.03;66.65
74542;BME280;63015;45.378;20.360;2023-04-12T00:28:18;100170.16;;;10.06;66.34
74542;BME280;63015;45.378;20.360;2023-04-12T00:30:18;100168.44;;;10.03;66.35
74542;BME280;63015;45.378;20.360;2023-04-12T00:32:19;100169.34;;;9.91;66.74
74542;BME280;63015;45.378;20.360;2023-04-12T00:34:19;100177.16;;;9.86;67.32
74542;BME280;63015;45.378;20.360;2023-04-12T00:36:20;100172.84;;;9.79;67.44
74542;BME280;63015;45.378;20.360;2023-04-12T00:38:21;100178.94;;;9.70;67.94
74542;BME280;63015;45.378;20.360;2023-04-12T00:40:22;100184.97;;;9.77;67.44
74542;BME280;63015;45.378;20.360;2023-04-12T00:42:23;100173.72;;;9.64;67.90
74542;BME280;63015;45.378;20.360;2023-04-12T00:44:23;100178.94;;;9.63;68.44
74542;BME280;63015;45.378;20.360;2023-04-12T00:46:24;100180.66;;;9.61;68.39
74542;BME280;63015;45.378;20.360;2023-04-12T00:48:25;100181.53;;;9.55;68.43
74542;BME280;63015;45.378;20.360;2023-04-12T00:50:26;100173.72;;;9.57;67.81
74542;BME280;63015;45.378;20.360;2023-04-12T00:52:27;100172.88;;;9.54;67.61
74542;BME280;63015;45.378;20.360;2023-04-12T00:54:34;100173.75;;;9.55;67.07
74542;BME280;63015;45.378;20.360;2023-04-12T00:56:35;100178.94;;;9.47;66.73
74542;BME280;63015;45.378;20.360;2023-04-12T00:58:37;100178.94;;;9.50;66.37
74542;BME280;63015;45.378;20.360;2023-04-12T01:00:37;100173.72;;;9.50;66.47
74542;BME280;63015;45.378;20.360;2023-04-12T01:02:41;100174.59;;;9.46;66.54
74542;BME280;63015;45.378;20.360;2023-04-12T01:04:41;100178.06;;;9.42;66.81
74542;BME280;63015;45.378;20.360;2023-04-12T01:06:48;100172.88;;;9.25;67.48
74542;BME280;63015;45.378;20.360;2023-04-12T01:11:06;100164.22;;;9.11;68.39
74542;BME280;63015;45.378;20.360;2023-04-12T01:15:15;100174.59;;;8.97;68.84
74542;BME280;63015;45.378;20.360;2023-04-12T01:17:21;100167.66;;;8.94;68.64
74542;BME280;63015;45.378;20.360;2023-04-12T01:19:46;100165.88;;;8.78;68.99
74542;BME280;63015;45.378;20.360;2023-04-12T01:24:34;100159.78;;;8.68;68.50
74542;BME280;63015;45.378;20.360;2023-04-12T01:26:45;100160.69;;;8.76;67.86
74542;BME280;63015;45.378;20.360;2023-04-12T01:28:51;100161.53;;;8.78;67.66
74542;BME280;63015;45.378;20.360;2023-04-12T01:30:53;100166.72;;;8.66;67.48
74542;BME280;63015;45.378;20.360;2023-04-12T01:32:59;100165.00;;;8.69;66.68
74542;BME280;63015;45.378;20.360;2023-04-12T01:35:00;100165.84;;;8.71;66.16
74542;BME280;63015;45.378;20.360;2023-04-12T01:37:02;100165.88;;;8.76;65.69
74542;BME280;63015;45.378;20.360;2023-04-12T01:39:05;100165.00;;;8.71;65.14
74542;BME280;63015;45.378;20.360;2023-04-12T01:41:07;100161.50;;;8.63;64.95
74542;BME280;63015;45.378;20.360;2023-04-12T01:43:12;100164.16;;;8.72;64.40
74542;BME280;63015;45.378;20.360;2023-04-12T01:45:13;100164.16;;;8.72;64.41
74542;BME280;63015;45.378;20.360;2023-04-12T01:47:13;100164.06;;;8.49;63.96
74542;BME280;63015;45.378;20.360;2023-04-12T01:49:15;100170.16;;;8.57;63.68
74542;BME280;63015;45.378;20.360;2023-04-12T01:55:37;100173.56;;;8.50;63.59
74542;BME280;63015;45.378;20.360;2023-04-12T01:57:39;100171.88;;;8.52;63.43
74542;BME280;63015;45.378;20.360;2023-04-12T01:59:43;100164.00;;;8.41;63.27
74542;BME280;63015;45.378;20.360;2023-04-12T02:01:45;100160.59;;;8.50;63.31
74542;BME280;63015;45.378;20.360;2023-04-12T02:03:46;100153.56;;;8.32;63.63
74542;BME280;63015;45.378;20.360;2023-04-12T02:05:51;100160.47;;;8.25;63.58
74542;BME280;63015;45.378;20.360;2023-04-12T02:07:55;100160.47;;;8.27;63.44
74542;BME280;63015;45.378;20.360;2023-04-12T02:09:55;100158.72;;;8.21;62.62
74542;BME280;63015;45.378;20.360;2023-04-12T02:11:56;100164.75;;;8.11;63.01
74542;BME280;63015;45.378;20.360;2023-04-12T02:13:57;100164.75;;;8.09;63.09
74542;BME280;63015;45.378;20.360;2023-04-12T02:15:57;100169.03;;;8.07;63.14
74542;BME280;63015;45.378;20.360;2023-04-12T02:17:58;100162.91;;;7.96;63.27
74542;BME280;63015;45.378;20.360;2023-04-12T02:19:59;100163.81;;;7.95;63.06
74542;BME280;63015;45.378;20.360;2023-04-12T02:22:00;100160.31;;;7.91;63.17
74542;BME280;63015;45.378;20.360;2023-04-12T02:24:02;100162.91;;;7.91;62.79
74542;BME280;63015;45.378;20.360;2023-04-12T02:26:03;100163.69;;;7.79;63.34
74542;BME280;63015;45.378;20.360;2023-04-12T02:28:05;100166.41;;;7.99;62.83
74542;BME280;63015;45.378;20.360;2023-04-12T02:30:07;100162.03;;;7.90;63.07
74542;BME280;63015;45.378;20.360;2023-04-12T02:32:09;100161.91;;;7.72;63.61
74542;BME280;63015;45.378;20.360;2023-04-12T02:34:10;100160.06;;;7.55;64.17
74542;BME280;63015;45.378;20.360;2023-04-12T02:36:15;100157.53;;;7.62;64.05
74542;BME280;63015;45.378;20.360;2023-04-12T02:38:17;100157.59;;;7.69;63.52
74542;BME280;63015;45.378;20.360;2023-04-12T02:40:18;100160.91;;;7.51;63.96
74542;BME280;63015;45.378;20.360;2023-04-12T02:42:19;100158.19;;;7.36;64.35
74542;BME280;63015;45.378;20.360;2023-04-12T02:44:22;100156.47;;;7.36;64.58
74542;BME280;63015;45.378;20.360;2023-04-12T02:46:39;100164.88;;;7.11;65.32
74542;BME280;63015;45.378;20.360;2023-04-12T02:48:40;100154.50;;;7.07;65.54
74542;BME280;63015;45.378;20.360;2023-04-12T02:50:41;100163.13;;;7.05;65.46
74542;BME280;63015;45.378;20.360;2023-04-12T02:52:48;100163.81;;;6.88;66.05
74542;BME280;63015;45.378;20.360;2023-04-12T02:54:49;100156.88;;;6.84;66.16
74542;BME280;63015;45.378;20.360;2023-04-12T02:56:51;100157.66;;;6.77;66.38
74542;BME280;63015;45.378;20.360;2023-04-12T02:59:20;100161.91;;;6.70;66.86
74542;BME280;63015;45.378;20.360;2023-04-12T03:01:41;100161.00;;;6.67;66.85
74542;BME280;63015;45.378;20.360;2023-04-12T03:04:06;100161.75;;;6.55;67.18
74542;BME280;63015;45.378;20.360;2023-04-12T03:06:15;100152.25;;;6.55;67.16
74542;BME280;63015;45.378;20.360;2023-04-12T03:08:15;100160.00;;;6.52;67.29
74542;BME280;63015;45.378;20.360;2023-04-12T03:10:24;100156.50;;;6.49;67.38
74542;BME280;63015;45.378;20.360;2023-04-12T03:12:36;100161.75;;;6.55;67.15
74542;BME280;63015;45.378;20.360;2023-04-12T03:14:47;100167.72;;;6.49;67.26
74542;BME280;63015;45.378;20.360;2023-04-12T03:16:48;100166.81;;;6.46;67.43
74542;BME280;63015;45.378;20.360;2023-04-12T03:18:52;100167.69;;;6.46;67.37
74542;BME280;63015;45.378;20.360;2023-04-12T03:20:56;100166.66;;;6.32;67.88
74542;BME280;63015;45.378;20.360;2023-04-12T03:22:56;100164.03;;;6.30;67.83
74542;BME280;63015;45.378;20.360;2023-04-12T03:24:57;100164.13;;;6.36;67.66
74542;BME280;63015;45.378;20.360;2023-04-12T03:26:57;100164.06;;;6.33;67.78
74542;BME280;63015;45.378;20.360;2023-04-12T03:29:02;100169.25;;;6.33;67.71
74542;BME280;63015;45.378;20.360;2023-04-12T03:31:09;100153.78;;;6.38;67.71
74542;BME280;63015;45.378;20.360;2023-04-12T03:33:15;100158.91;;;6.33;67.99
74542;BME280;63015;45.378;20.360;2023-04-12T03:35:16;100155.47;;;6.36;67.85
74542;BME280;63015;45.378;20.360;2023-04-12T03:37:17;100154.41;;;6.18;68.42
74542;BME280;63015;45.378;20.360;2023-04-12T03:39:18;100154.44;;;6.21;68.35
74542;BME280;63015;45.378;20.360;2023-04-12T03:41:22;100148.44;;;6.22;68.21
74542;BME280;63015;45.378;20.360;2023-04-12T03:43:23;100147.59;;;6.23;68.16
74542;BME280;63015;45.378;20.360;2023-04-12T03:45:24;100157.03;;;6.21;68.18
74542;BME280;63015;45.378;20.360;2023-04-12T03:47:28;100150.94;;;6.18;68.39
74542;BME280;63015;45.378;20.360;2023-04-12T03:49:32;100146.59;;;6.14;68.53
74542;BME280;63015;45.378;20.360;2023-04-12T03:51:33;100152.69;;;6.19;68.30
74542;BME280;63015;45.378;20.360;2023-04-12T03:53:37;100156.00;;;6.07;68.61
74542;BME280;63015;45.378;20.360;2023-04-12T03:55:38;100158.69;;;6.16;68.24
74542;BME280;63015;45.378;20.360;2023-04-12T03:57:40;100165.44;;;6.05;68.63
74542;BME280;63015;45.378;20.360;2023-04-12T03:59:42;100155.09;;;6.06;68.48
74542;BME280;63015;45.378;20.360;2023-04-12T04:01:43;100155.06;;;6.00;68.64
74542;BME280;63015;45.378;20.360;2023-04-12T04:03:44;100154.88;;;5.91;68.90
74542;BME280;63015;45.378;20.360;2023-04-12T04:05:52;100154.94;;;5.96;68.74
74542;BME280;63015;45.378;20.360;2023-04-12T04:07:54;100150.59;;;5.93;68.81
74542;BME280;63015;45.378;20.360;2023-04-12T04:09:56;100155.69;;;5.87;68.88
74542;BME280;63015;45.378;20.360;2023-04-12T04:12:01;100155.66;;;5.85;69.04
74542;BME280;63015;45.378;20.360;2023-04-12T04:14:02;100156.66;;;5.95;68.80
74542;BME280;63015;45.378;20.360;2023-04-12T04:16:05;100159.34;;;6.00;68.61
74542;BME280;63015;45.378;20.360;2023-04-12T04:18:06;100167.06;;;5.98;68.56
74542;BME280;63015;45.378;20.360;2023-04-12T04:20:08;100164.56;;;6.03;68.42
74542;BME280;63015;45.378;20.360;2023-04-12T04:22:11;100174.97;;;6.09;68.32
74542;BME280;63015;45.378;20.360;2023-04-12T04:24:12;100171.53;;;6.10;68.18
74542;BME280;63015;45.378;20.360;2023-04-12T04:26:19;100163.84;;;6.13;68.25
74542;BME280;63015;45.378;20.360;2023-04-12T04:28:29;100162.81;;;6.00;68.72
74542;BME280;63015;45.378;20.360;2023-04-12T04:30:29;100165.53;;;6.11;68.58
74542;BME280;63015;45.378;20.360;2023-04-12T04:32:34;100159.59;;;6.18;68.08
74542;BME280;63015;45.378;20.360;2023-04-12T04:34:34;100158.72;;;6.19;68.07
74542;BME280;63015;45.378;20.360;2023-04-12T04:36:43;100159.72;;;6.29;67.74
74542;BME280;63015;45.378;20.360;2023-04-12T04:38:44;100156.19;;;6.22;67.92
74542;BME280;63015;45.378;20.360;2023-04-12T04:40:55;100168.31;;;6.28;67.93
74542;BME280;63015;45.378;20.360;2023-04-12T04:43:05;100167.38;;;6.20;68.10
74542;BME280;63015;45.378;20.360;2023-04-12T04:45:11;100170.25;;;6.43;67.64
74542;BME280;63015;45.378;20.360;2023-04-12T04:47:17;100174.59;;;6.46;67.57
74542;BME280;63015;45.378;20.360;2023-04-12T04:49:18;100169.41;;;6.44;67.41
74542;BME280;63015;45.378;20.360;2023-04-12T04:51:18;100177.22;;;6.50;67.05
74542;BME280;63015;45.378;20.360;2023-04-12T04:53:20;100183.38;;;6.62;67.15
74542;BME280;63015;45.378;20.360;2023-04-12T04:55:22;100176.38;;;6.53;67.33
74542;BME280;63015;45.378;20.360;2023-04-12T04:57:24;100178.91;;;6.47;67.63
74542;BME280;63015;45.378;20.360;2023-04-12T04:59:28;100173.75;;;6.47;67.62
74542;BME280;63015;45.378;20.360;2023-04-12T05:01:42;100186.72;;;6.53;67.72
74542;BME280;63015;45.378;20.360;2023-04-12T05:03:43;100186.03;;;6.66;67.69
74542;BME280;63015;45.378;20.360;2023-04-12T05:05:49;100181.81;;;6.74;67.20
74542;BME280;63015;45.378;20.360;2023-04-12T05:07:50;100191.25;;;6.69;67.14
74542;BME280;63015;45.378;20.360;2023-04-12T05:09:51;100198.19;;;6.73;67.26
74542;BME280;63015;45.378;20.360;2023-04-12T05:11:53;100193.91;;;6.75;67.13
74542;BME280;63015;45.378;20.360;2023-04-12T05:13:54;100191.41;;;6.83;67.15
74542;BME280;63015;45.378;20.360;2023-04-12T05:15:54;100186.28;;;6.89;66.97
74542;BME280;63015;45.378;20.360;2023-04-12T05:17:55;100189.03;;;7.03;66.59
74542;BME280;63015;45.378;20.360;2023-04-12T05:19:56;100184.63;;;6.95;66.57
74542;BME280;63015;45.378;20.360;2023-04-12T05:21:57;100178.75;;;7.13;66.38
74542;BME280;63015;45.378;20.360;2023-04-12T05:23:57;100177.94;;;7.20;65.95
74542;BME280;63015;45.378;20.360;2023-04-12T05:25:58;100173.72;;;7.31;65.94
74542;BME280;63015;45.378;20.360;2023-04-12T05:27:59;100181.41;;;7.22;65.90
74542;BME280;63015;45.378;20.360;2023-04-12T05:29:59;100179.75;;;7.30;65.83
74542;BME280;63015;45.378;20.360;2023-04-12T05:32:01;100178.97;;;7.40;65.52
74542;BME280;63015;45.378;20.360;2023-04-12T05:34:01;100171.25;;;7.48;65.56
74542;BME280;63015;45.378;20.360;2023-04-12T05:36:07;100172.28;;;7.70;64.99
74542;BME280;63015;45.378;20.360;2023-04-12T05:38:08;100171.41;;;7.65;65.18
74542;BME280;63015;45.378;20.360;2023-04-12T05:40:09;100173.19;;;7.82;65.15
74542;BME280;63015;45.378;20.360;2023-04-12T05:42:11;100165.47;;;7.85;64.85
74542;BME280;63015;45.378;20.360;2023-04-12T05:44:11;100175.97;;;8.08;64.64
74542;BME280;63015;45.378;20.360;2023-04-12T05:46:12;100167.38;;;8.17;63.73
74542;BME280;63015;45.378;20.360;2023-04-12T05:48:12;100168.28;;;8.33;63.57
74542;BME280;63015;45.378;20.360;2023-04-12T05:50:14;100159.63;;;8.29;63.46
74542;BME280;63015;45.378;20.360;2023-04-12T05:52:15;100171.81;;;8.44;63.20
74542;BME280;63015;45.378;20.360;2023-04-12T05:54:16;100171.81;;;8.44;62.64
74542;BME280;63015;45.378;20.360;2023-04-12T05:56:21;100174.47;;;8.53;62.36
74542;BME280;63015;45.378;20.360;2023-04-12T05:58:21;100175.31;;;8.51;62.20
74542;BME280;63015;45.378;20.360;2023-04-12T06:00:26;100169.34;;;8.74;62.10
74542;BME280;63015;45.378;20.360;2023-04-12T06:02:27;100170.22;;;8.86;61.42
74542;BME280;63015;45.378;20.360;2023-04-12T06:04:27;100166.75;;;8.84;61.04
74542;BME280;63015;45.378;20.360;2023-04-12T06:06:28;100166.81;;;9.03;60.79
74542;BME280;63015;45.378;20.360;2023-04-12T06:08:30;100165.94;;;9.10;60.58
74542;BME280;63015;45.378;20.360;2023-04-12T06:10:31;100162.47;;;9.27;59.61
74542;BME280;63015;45.378;20.360;2023-04-12T06:12:32;100160.75;;;9.30;59.70
74542;BME280;63015;45.378;20.360;2023-04-12T06:14:32;100169.41;;;9.45;60.03
74542;BME280;63015;45.378;20.360;2023-04-12T06:16:33;100165.91;;;9.72;59.21
74542;BME280;63015;45.378;20.360;2023-04-12T06:18:33;100165.91;;;9.84;58.66
74542;BME280;63015;45.378;20.360;2023-04-12T06:20:37;100167.59;;;10.02;58.60
74542;BME280;63015;45.378;20.360;2023-04-12T06:22:38;100176.25;;;10.01;58.24
74542;BME280;63015;45.378;20.360;2023-04-12T06:24:40;100172.81;;;9.92;58.09
74542;BME280;63015;45.378;20.360;2023-04-12T06:26:42;100178.88;;;9.95;57.72
74542;BME280;63015;45.378;20.360;2023-04-12T06:28:46;100170.09;;;10.32;57.68
74542;BME280;63015;45.378;20.360;2023-04-12T06:30:47;100165.75;;;10.26;56.72
74542;BME280;63015;45.378;20.360;2023-04-12T06:32:48;100163.13;;;10.46;56.35
74542;BME280;63015;45.378;20.360;2023-04-12T06:34:48;100170.09;;;10.30;56.22
74542;BME280;63015;45.378;20.360;2023-04-12T06:36:49;100166.59;;;10.50;56.56
74542;BME280;63015;45.378;20.360;2023-04-12T06:38:49;100155.88;;;10.98;55.97
74542;BME280;63015;45.378;20.360;2023-04-12T06:40:50;100147.28;;;10.83;54.73
74542;BME280;63015;45.378;20.360;2023-04-12T06:42:51;100158.41;;;11.10;55.29
74542;BME280;63015;45.378;20.360;2023-04-12T06:44:56;100141.72;;;11.30;54.72
74542;BME280;63015;45.378;20.360;2023-04-12T06:46:56;100146.69;;;11.61;53.71
74542;BME280;63015;45.378;20.360;2023-04-12T06:48:57;100143.66;;;11.05;53.79
74542;BME280;63015;45.378;20.360;2023-04-12T06:50:57;100145.38;;;11.07;53.84
74542;BME280;63015;45.378;20.360;2023-04-12T06:52:58;100135.50;;;11.43;53.77
74542;BME280;63015;45.378;20.360;2023-04-12T06:54:58;100136.59;;;11.19;52.67
74542;BME280;63015;45.378;20.360;2023-04-12T06:56:59;100128.59;;;11.41;53.27
74542;BME280;63015;45.378;20.360;2023-04-12T06:59:00;100134.22;;;11.86;53.01
74542;BME280;63015;45.378;20.360;2023-04-12T07:01:05;100148.25;;;11.77;51.83
74542;BME280;63015;45.378;20.360;2023-04-12T07:03:07;100141.44;;;11.61;52.01
74542;BME280;63015;45.378;20.360;2023-04-12T07:05:08;100148.69;;;12.18;52.07
74542;BME280;63015;45.378;20.360;2023-04-12T07:07:09;100152.81;;;12.36;51.55
74542;BME280;63015;45.378;20.360;2023-04-12T07:09:09;100157.06;;;12.46;51.25
74542;BME280;63015;45.378;20.360;2023-04-12T07:11:10;100154.50;;;12.43;50.26
74542;BME280;63015;45.378;20.360;2023-04-12T07:13:11;100145.63;;;12.55;50.55
74542;BME280;63015;45.378;20.360;2023-04-12T07:15:11;100150.34;;;12.89;49.67
74542;BME280;63015;45.378;20.360;2023-04-12T07:17:12;100156.81;;;12.66;49.37
74542;BME280;63015;45.378;20.360;2023-04-12T07:19:12;100163.41;;;12.92;49.55
74542;BME280;63015;45.378;20.360;2023-04-12T07:21:13;100152.31;;;13.32;49.43
74542;BME280;63015;45.378;20.360;2023-04-12T07:23:13;100159.03;;;12.93;48.94
74542;BME280;63015;45.378;20.360;2023-04-12T07:25:14;100146.84;;;13.48;49.07
74542;BME280;63015;45.378;20.360;2023-04-12T07:27:15;100159.53;;;13.71;47.30
74542;BME280;63015;45.378;20.360;2023-04-12T07:29:15;100154.97;;;13.82;47.92
74542;BME280;63015;45.378;20.360;2023-04-12T07:31:16;100165.00;;;13.59;47.07
74542;BME280;63015;45.378;20.360;2023-04-12T07:33:17;100164.59;;;13.82;47.01
74542;BME280;63015;45.378;20.360;2023-04-12T07:35:17;100161.25;;;13.19;47.77
74542;BME280;63015;45.378;20.360;2023-04-12T07:37:18;100160.16;;;13.84;48.02
74542;BME280;63015;45.378;20.360;2023-04-12T07:39:19;100166.97;;;14.38;47.27
74542;BME280;63015;45.378;20.360;2023-04-12T07:41:21;100172.44;;;14.27;45.63
74542;BME280;63015;45.378;20.360;2023-04-12T07:43:22;100171.72;;;14.19;45.62
74542;BME280;63015;45.378;20.360;2023-04-12T07:45:23;100171.28;;;14.41;45.29
74542;BME280;63015;45.378;20.360;2023-04-12T07:47:24;100177.53;;;14.35;46.08
74542;BME280;63015;45.378;20.360;2023-04-12T07:49:24;100173.84;;;14.86;45.45
74542;BME280;63015;45.378;20.360;2023-04-12T07:51:25;100176.88;;;14.68;45.69
74542;BME280;63015;45.378;20.360;2023-04-12T07:53:27;100174.56;;;14.52;45.45
74542;BME280;63015;45.378;20.360;2023-04-12T07:55:27;100171.56;;;15.10;45.36
74542;BME280;63015;45.378;20.360;2023-04-12T07:57:28;100176.06;;;15.41;44.64
74542;BME280;63015;45.378;20.360;2023-04-12T07:59:29;100178.63;;;15.06;44.38
74542;BME280;63015;45.378;20.360;2023-04-12T08:01:30;100174.00;;;14.78;44.79
74542;BME280;63015;45.378;20.360;2023-04-12T08:03:31;100170.22;;;15.29;44.75
74542;BME280;63015;45.378;20.360;2023-04-12T08:05:31;100169.84;;;15.79;43.76
74542;BME280;63015;45.378;20.360;2023-04-12T08:07:32;100170.47;;;15.55;43.95
74542;BME280;63015;45.378;20.360;2023-04-12T08:09:33;100173.91;;;15.57;43.87
74542;BME280;63015;45.378;20.360;2023-04-12T08:11:34;100165.56;;;15.75;43.75
74542;BME280;63015;45.378;20.360;2023-04-12T08:13:34;100176.72;;;15.49;44.08
74542;BME280;63015;45.378;20.360;2023-04-12T08:15:35;100175.50;;;15.28;43.80
74542;BME280;63015;45.378;20.360;2023-04-12T08:17:36;100174.53;;;16.01;43.52
74542;BME280;63015;45.378;20.360;2023-04-12T08:19:36;100184.16;;;16.02;41.97
74542;BME280;63015;45.378;20.360;2023-04-12T08:21:37;100178.91;;;16.34;42.25
74542;BME280;63015;45.378;20.360;2023-04-12T08:23:37;100179.75;;;16.03;41.80
74542;BME280;63015;45.378;20.360;2023-04-12T08:25:38;100177.84;;;16.39;42.04
74542;BME280;63015;45.378;20.360;2023-04-12T08:27:41;100182.59;;;15.95;41.66
74542;BME280;63015;45.378;20.360;2023-04-12T08:29:41;100178.16;;;15.97;41.34
74542;BME280;63015;45.378;20.360;2023-04-12T08:31:42;100179.63;;;16.39;42.11
74542;BME280;63015;45.378;20.360;2023-04-12T08:33:43;100173.38;;;16.43;42.09
74542;BME280;63015;45.378;20.360;2023-04-12T08:35:43;100172.44;;;16.14;42.36
74542;BME280;63015;45.378;20.360;2023-04-12T08:37:44;100172.53;;;15.76;42.55
74542;BME280;63015;45.378;20.360;2023-04-12T08:39:44;100166.25;;;16.17;42.34
74542;BME280;63015;45.378;20.360;2023-04-12T08:41:46;100171.81;;;16.04;42.18
74542;BME280;63015;45.378;20.360;2023-04-12T08:43:46;100174.81;;;16.53;41.64
74542;BME280;63015;45.378;20.360;2023-04-12T08:45:48;100156.09;;;16.64;41.14
74542;BME280;63015;45.378;20.360;2023-04-12T08:47:49;100164.38;;;16.20;41.05
74542;BME280;63015;45.378;20.360;2023-04-12T08:49:49;100171.50;;;16.17;41.76
74542;BME280;63015;45.378;20.360;2023-04-12T08:51:52;100166.88;;;16.25;41.71
74542;BME280;63015;45.378;20.360;2023-04-12T08:53:54;100167.44;;;16.36;41.31
74542;BME280;63015;45.378;20.360;2023-04-12T08:55:54;100154.09;;;16.42;40.42
74542;BME280;63015;45.378;20.360;2023-04-12T08:57:55;100158.34;;;16.76;40.89
74542;BME280;63015;45.378;20.360;2023-04-12T08:59:56;100172.72;;;16.35;40.87
74542;BME280;63015;45.378;20.360;2023-04-12T09:01:58;100159.25;;;17.05;39.97
74542;BME280;63015;45.378;20.360;2023-04-12T09:04:05;100154.81;;;17.06;39.32
74542;BME280;63015;45.378;20.360;2023-04-12T09:06:06;100149.56;;;17.33;39.34
74542;BME280;63015;45.378;20.360;2023-04-12T09:08:06;100145.63;;;16.92;38.44
74542;BME280;63015;45.378;20.360;2023-04-12T09:10:07;100150.13;;;16.57;39.00
74542;BME280;63015;45.378;20.360;2023-04-12T09:12:09;100143.53;;;16.44;40.07
74542;BME280;63015;45.378;20.360;2023-04-12T09:14:21;100142.00;;;16.67;38.91
74542;BME280;63015;45.378;20.360;2023-04-12T09:16:39;100138.34;;;16.71;38.68
74542;BME280;63015;45.378;20.360;2023-04-12T09:18:48;100135.88;;;16.95;39.81
74542;BME280;63015;45.378;20.360;2023-04-12T09:20:49;100139.09;;;17.56;39.34
74542;BME280;63015;45.378;20.360;2023-04-12T09:22:49;100133.63;;;17.11;37.30
74542;BME280;63015;45.378;20.360;2023-04-12T09:24:51;100125.97;;;17.30;38.00
74542;BME280;63015;45.378;20.360;2023-04-12T09:27:10;100130.44;;;17.01;38.38
74542;BME280;63015;45.378;20.360;2023-04-12T09:29:22;100129.28;;;17.62;38.11
74542;BME280;63015;45.378;20.360;2023-04-12T09:31:26;100121.91;;;17.71;38.23
74542;BME280;63015;45.378;20.360;2023-04-12T09:33:35;100125.72;;;18.13;36.80
74542;BME280;63015;45.378;20.360;2023-04-12T09:35:36;100124.16;;;18.31;36.98
74542;BME280;63015;45.378;20.360;2023-04-12T09:37:37;100122.97;;;18.16;37.01
74542;BME280;63015;45.378;20.360;2023-04-12T09:39:38;100125.75;;;17.86;36.73
74542;BME280;63015;45.378;20.360;2023-04-12T09:41:38;100126.72;;;17.06;36.74
74542;BME280;63015;45.378;20.360;2023-04-12T09:43:39;100121.56;;;17.55;35.26
74542;BME280;63015;45.378;20.360;2023-04-12T09:45:40;100130.25;;;17.59;37.05
74542;BME280;63015;45.378;20.360;2023-04-12T09:47:40;100118.06;;;17.30;37.42
74542;BME280;63015;45.378;20.360;2023-04-12T09:49:43;100115.94;;;17.14;37.32
74542;BME280;63015;45.378;20.360;2023-04-12T09:51:50;100117.84;;;17.86;36.51
74542;BME280;63015;45.378;20.360;2023-04-12T09:53:52;100110.56;;;17.69;36.58
74542;BME280;63015;45.378;20.360;2023-04-12T09:55:53;100121.00;;;16.93;36.55
74542;BME280;63015;45.378;20.360;2023-04-12T09:57:56;100116.31;;;17.03;36.21
74542;BME280;63015;45.378;20.360;2023-04-12T10:00:01;100118.94;;;17.03;37.11
74542;BME280;63015;45.378;20.360;2023-04-12T10:02:18;100115.44;;;17.03;36.92
74542;BME280;63015;45.378;20.360;2023-04-12T10:04:22;100111.03;;;17.30;36.97
74542;BME280;63015;45.378;20.360;2023-04-12T10:06:23;100126.47;;;17.41;37.46
74542;BME280;63015;45.378;20.360;2023-04-12T10:08:24;100119.13;;;16.97;36.39
74542;BME280;63015;45.378;20.360;2023-04-12T10:10:25;100113.72;;;16.73;37.29
74542;BME280;63015;45.378;20.360;2023-04-12T10:12:26;100110.88;;;17.35;37.05
74542;BME280;63015;45.378;20.360;2023-04-12T10:14:28;100105.78;;;17.30;36.88
74542;BME280;63015;45.378;20.360;2023-04-12T10:16:29;100101.88;;;17.15;36.92
74542;BME280;63015;45.378;20.360;2023-04-12T10:18:34;100106.28;;;17.15;36.91
74542;BME280;63015;45.378;20.360;2023-04-12T10:20:39;100095.56;;;17.71;36.60
74542;BME280;63015;45.378;20.360;2023-04-12T10:22:46;100100.94;;;17.43;36.28
74542;BME280;63015;45.378;20.360;2023-04-12T10:24:47;100100.56;;;17.29;36.11
74542;BME280;63015;45.378;20.360;2023-04-12T10:26:48;100109.22;;;17.83;35.69
74542;BME280;63015;45.378;20.360;2023-04-12T10:31:29;100096.97;;;17.56;35.27
74542;BME280;63015;45.378;20.360;2023-04-12T10:33:29;100097.13;;;18.02;36.04
74542;BME280;63015;45.378;20.360;2023-04-12T10:38:02;100089.44;;;17.46;35.06
74542;BME280;63015;45.378;20.360;2023-04-12T10:40:03;100089.91;;;17.82;35.36
74542;BME280;63015;45.378;20.360;2023-04-12T10:42:27;100090.75;;;18.08;34.93
74542;BME280;63015;45.378;20.360;2023-04-12T10:44:28;100091.00;;;18.48;35.19
74542;BME280;63015;45.378;20.360;2023-04-12T10:48:50;100094.38;;;18.29;32.99
74542;BME280;63015;45.378;20.360;2023-04-12T10:55:27;100083.44;;;18.38;33.20
74542;BME280;63015;45.378;20.360;2023-04-12T10:57:43;100083.72;;;18.08;32.85
74542;BME280;63015;45.378;20.360;2023-04-12T10:59:51;100069.94;;;18.24;33.62
74542;BME280;63015;45.378;20.360;2023-04-12T11:04:15;100070.13;;;18.41;32.88